sensor_id;sensor_type;location;lat;lon;timestamp;temperature;humidity
6690;DHT22;76797;51.590;8.116;2024-03-25T00:01:28;10.20;99.90
6690;DHT22;76797;51.590;8.116;2024-03-25T00:03:54;9.90;99.90
6690;DHT22;76797;51.590;8.116;2024-03-25T00:06:19;9.90;99.90
6690;DHT22;76797;51.590;8.116;2024-03-25T00:08:45;9.90;99.90
6690;DHT22;76797;51.590;8.116;2024-03-25T00:11:10;9.80;99.90
6690;DHT22;76797;51.590;8.116;2024-03-25T00:13:36;9.80;99.90
6690;DHT22;76797;51.590;8.116;2024-03-25T00:16:01;9.90;99.90
6690;DHT22;76797;51.590;8.116;2024-03-25T00:18:27;9.80;99.90
6690;DHT22;76797;51.590;8.116;2024-03-25T00:20:53;9.80;99.90
6690;DHT22;76797;51.590;8.116;2024-03-25T00:23:18;9.80;99.90
6690;DHT22;76797;51.590;8.116;2024-03-25T00:25:44;10.10;99.90
6690;DHT22;76797;51.590;8.116;2024-03-25T00:28:10;9.80;99.90
6690;DHT22;76797;51.590;8.116;2024-03-25T00:30:35;9.70;99.90
6690;DHT22;76797;51.590;8.116;2024-03-25T00:33:01;9.70;99.90
6690;DHT22;76797;51.590;8.116;2024-03-25T00:35:26;9.70;99.90
6690;DHT22;76797;51.590;8.116;2024-03-25T00:37:52;9.60;99.90
6690;DHT22;76797;51.590;8.116;2024-03-25T00:40:18;9.60;99.90
6690;DHT22;76797;51.590;8.116;2024-03-25T00:42:43;9.60;99.90
6690;DHT22;76797;51.590;8.116;2024-03-25T00:45:09;9.60;99.90
6690;DHT22;76797;51.590;8.116;2024-03-25T00:47:34;9.60;99.90
6690;DHT22;76797;51.590;8.116;2024-03-25T00:50:00;9.60;99.90
6690;DHT22;76797;51.590;8.116;2024-03-25T00:52:26;9.60;99.90
6690;DHT22;76797;51.590;8.116;2024-03-25T00:54:51;9.60;99.90
6690;DHT22;76797;51.590;8.116;2024-03-25T00:57:17;9.60;99.90
6690;DHT22;76797;51.590;8.116;2024-03-25T00:59:43;9.90;99.90
6690;DHT22;76797;51.590;8.116;2024-03-25T01:02:09;9.60;99.90
6690;DHT22;76797;51.590;8.116;2024-03-25T01:04:35;9.50;99.90
6690;DHT22;76797;51.590;8.116;2024-03-25T01:07:00;10.10;99.90
6690;DHT22;76797;51.590;8.116;2024-03-25T01:09:26;9.60;99.90
6690;DHT22;76797;51.590;8.116;2024-03-25T01:11:51;9.60;99.90
6690;DHT22;76797;51.590;8.116;2024-03-25T01:14:17;9.60;99.90
6690;DHT22;76797;51.590;8.116;2024-03-25T01:16:42;9.60;99.90
6690;DHT22;76797;51.590;8.116;2024-03-25T01:19:08;9.60;99.90
6690;DHT22;76797;51.590;8.116;2024-03-25T01:21:34;9.60;99.90
6690;DHT22;76797;51.590;8.116;2024-03-25T01:24:00;9.90;99.90
6690;DHT22;76797;51.590;8.116;2024-03-25T01:26:25;9.60;99.90
6690;DHT22;76797;51.590;8.116;2024-03-25T01:28:52;9.60;99.90
6690;DHT22;76797;51.590;8.116;2024-03-25T01:31:17;9.70;99.90
6690;DHT22;76797;51.590;8.116;2024-03-25T01:33:43;9.70;99.90
6690;DHT22;76797;51.590;8.116;2024-03-25T01:36:08;9.70;99.90
6690;DHT22;76797;51.590;8.116;2024-03-25T01:38:36;9.70;99.90
6690;DHT22;76797;51.590;8.116;2024-03-25T01:41:12;9.70;99.90
6690;DHT22;76797;51.590;8.116;2024-03-25T01:43:38;9.70;99.90
6690;DHT22;76797;51.590;8.116;2024-03-25T01:46:04;9.70;99.90
6690;DHT22;76797;51.590;8.116;2024-03-25T01:48:31;9.70;99.90
6690;DHT22;76797;51.590;8.116;2024-03-25T01:50:56;9.80;99.90
6690;DHT22;76797;51.590;8.116;2024-03-25T01:53:23;9.70;99.90
6690;DHT22;76797;51.590;8.116;2024-03-25T01:55:49;9.70;99.90
6690;DHT22;76797;51.590;8.116;2024-03-25T01:58:16;9.60;99.90
6690;DHT22;76797;51.590;8.116;2024-03-25T02:00:43;9.60;99.90
6690;DHT22;76797;51.590;8.116;2024-03-25T02:03:08;9.60;99.90
6690;DHT22;76797;51.590;8.116;2024-03-25T02:05:34;9.60;99.90
6690;DHT22;76797;51.590;8.116;2024-03-25T02:08:01;9.60;99.90
6690;DHT22;76797;51.590;8.116;2024-03-25T02:10:29;9.50;99.90
6690;DHT22;76797;51.590;8.116;2024-03-25T02:12:55;9.50;99.90
6690;DHT22;76797;51.590;8.116;2024-03-25T02:15:21;9.40;99.90
6690;DHT22;76797;51.590;8.116;2024-03-25T02:17:46;9.40;99.90
6690;DHT22;76797;51.590;8.116;2024-03-25T02:20:12;9.40;99.90
6690;DHT22;76797;51.590;8.116;2024-03-25T02:22:41;9.40;99.90
6690;DHT22;76797;51.590;8.116;2024-03-25T02:25:09;9.30;99.90
6690;DHT22;76797;51.590;8.116;2024-03-25T02:27:38;9.30;99.90
6690;DHT22;76797;51.590;8.116;2024-03-25T02:30:11;9.30;99.90
6690;DHT22;76797;51.590;8.116;2024-03-25T02:32:40;9.30;99.90
6690;DHT22;76797;51.590;8.116;2024-03-25T02:35:12;9.30;99.90
6690;DHT22;76797;51.590;8.116;2024-03-25T02:37:39;9.30;99.90
6690;DHT22;76797;51.590;8.116;2024-03-25T02:40:07;9.30;99.90
6690;DHT22;76797;51.590;8.116;2024-03-25T02:42:33;9.30;99.90
6690;DHT22;76797;51.590;8.116;2024-03-25T02:44:59;9.60;99.90
6690;DHT22;76797;51.590;8.116;2024-03-25T02:47:25;9.30;99.90
6690;DHT22;76797;51.590;8.116;2024-03-25T02:49:50;9.20;99.90
6690;DHT22;76797;51.590;8.116;2024-03-25T02:52:17;9.20;99.90
6690;DHT22;76797;51.590;8.116;2024-03-25T02:54:43;9.20;99.90
6690;DHT22;76797;51.590;8.116;2024-03-25T02:57:08;9.20;99.90
6690;DHT22;76797;51.590;8.116;2024-03-25T02:59:34;9.10;99.90
6690;DHT22;76797;51.590;8.116;2024-03-25T03:01:59;9.10;99.90
6690;DHT22;76797;51.590;8.116;2024-03-25T03:04:25;9.10;99.90
6690;DHT22;76797;51.590;8.116;2024-03-25T03:06:50;9.20;99.90
6690;DHT22;76797;51.590;8.116;2024-03-25T03:09:16;9.20;99.90
6690;DHT22;76797;51.590;8.116;2024-03-25T03:11:41;9.20;99.90
6690;DHT22;76797;51.590;8.116;2024-03-25T03:14:07;9.20;99.90
6690;DHT22;76797;51.590;8.116;2024-03-25T03:16:32;9.20;99.90
6690;DHT22;76797;51.590;8.116;2024-03-25T03:18:58;9.20;99.90
6690;DHT22;76797;51.590;8.116;2024-03-25T03:21:23;9.20;99.90
6690;DHT22;76797;51.590;8.116;2024-03-25T03:23:49;9.20;99.90
6690;DHT22;76797;51.590;8.116;2024-03-25T03:26:14;9.30;99.90
6690;DHT22;76797;51.590;8.116;2024-03-25T03:28:40;9.30;99.90
6690;DHT22;76797;51.590;8.116;2024-03-25T03:31:06;9.30;99.90
6690;DHT22;76797;51.590;8.116;2024-03-25T03:33:32;9.30;99.90
6690;DHT22;76797;51.590;8.116;2024-03-25T03:35:57;9.30;99.90
6690;DHT22;76797;51.590;8.116;2024-03-25T03:38:23;9.30;99.90
6690;DHT22;76797;51.590;8.116;2024-03-25T03:40:58;9.30;99.90
6690;DHT22;76797;51.590;8.116;2024-03-25T03:43:24;9.30;99.90
6690;DHT22;76797;51.590;8.116;2024-03-25T03:45:50;9.30;99.90
6690;DHT22;76797;51.590;8.116;2024-03-25T03:48:16;9.30;99.90
6690;DHT22;76797;51.590;8.116;2024-03-25T03:50:42;9.30;99.90
6690;DHT22;76797;51.590;8.116;2024-03-25T03:53:07;9.30;99.90
6690;DHT22;76797;51.590;8.116;2024-03-25T03:55:33;9.40;99.90
6690;DHT22;76797;51.590;8.116;2024-03-25T03:57:59;9.80;99.90
6690;DHT22;76797;51.590;8.116;2024-03-25T04:00:24;9.30;99.90
6690;DHT22;76797;51.590;8.116;2024-03-25T04:02:50;9.80;99.90
6690;DHT22;76797;51.590;8.116;2024-03-25T04:05:15;9.30;99.90
6690;DHT22;76797;51.590;8.116;2024-03-25T04:07:41;9.30;99.90
6690;DHT22;76797;51.590;8.116;2024-03-25T04:10:08;9.30;99.90
6690;DHT22;76797;51.590;8.116;2024-03-25T04:12:33;9.30;99.90
6690;DHT22;76797;51.590;8.116;2024-03-25T04:14:59;9.30;99.90
6690;DHT22;76797;51.590;8.116;2024-03-25T04:17:24;9.30;99.90
6690;DHT22;76797;51.590;8.116;2024-03-25T04:19:50;9.30;99.90
6690;DHT22;76797;51.590;8.116;2024-03-25T04:22:16;9.30;99.90
6690;DHT22;76797;51.590;8.116;2024-03-25T04:24:45;9.30;99.90
6690;DHT22;76797;51.590;8.116;2024-03-25T04:27:11;9.30;99.90
6690;DHT22;76797;51.590;8.116;2024-03-25T04:29:36;9.30;99.90
6690;DHT22;76797;51.590;8.116;2024-03-25T04:32:02;9.30;99.90
6690;DHT22;76797;51.590;8.116;2024-03-25T04:34:30;9.30;99.90
6690;DHT22;76797;51.590;8.116;2024-03-25T04:36:56;9.30;99.90
6690;DHT22;76797;51.590;8.116;2024-03-25T04:39:22;9.70;99.90
6690;DHT22;76797;51.590;8.116;2024-03-25T04:41:47;9.30;99.90
6690;DHT22;76797;51.590;8.116;2024-03-25T04:44:13;9.30;99.90
6690;DHT22;76797;51.590;8.116;2024-03-25T04:46:39;9.30;99.90
6690;DHT22;76797;51.590;8.116;2024-03-25T04:49:05;9.30;99.90
6690;DHT22;76797;51.590;8.116;2024-03-25T04:51:30;9.30;99.90
6690;DHT22;76797;51.590;8.116;2024-03-25T04:53:57;9.30;99.90
6690;DHT22;76797;51.590;8.116;2024-03-25T04:56:22;9.30;99.90
6690;DHT22;76797;51.590;8.116;2024-03-25T04:58:48;9.30;99.90
6690;DHT22;76797;51.590;8.116;2024-03-25T05:01:13;9.30;99.90
6690;DHT22;76797;51.590;8.116;2024-03-25T05:03:39;9.30;99.90
6690;DHT22;76797;51.590;8.116;2024-03-25T05:06:04;9.30;99.90
6690;DHT22;76797;51.590;8.116;2024-03-25T05:08:30;9.30;99.90
6690;DHT22;76797;51.590;8.116;2024-03-25T05:10:56;9.30;99.90
6690;DHT22;76797;51.590;8.116;2024-03-25T05:13:22;9.30;99.90
6690;DHT22;76797;51.590;8.116;2024-03-25T05:15:51;9.30;99.90
6690;DHT22;76797;51.590;8.116;2024-03-25T05:18:17;9.30;99.90
6690;DHT22;76797;51.590;8.116;2024-03-25T05:20:43;9.30;99.90
6690;DHT22;76797;51.590;8.116;2024-03-25T05:23:08;9.30;99.90
6690;DHT22;76797;51.590;8.116;2024-03-25T05:25:37;9.30;99.90
6690;DHT22;76797;51.590;8.116;2024-03-25T05:28:04;9.70;99.90
6690;DHT22;76797;51.590;8.116;2024-03-25T05:30:30;9.30;99.90
6690;DHT22;76797;51.590;8.116;2024-03-25T05:32:55;9.30;99.90
6690;DHT22;76797;51.590;8.116;2024-03-25T05:35:21;9.30;99.90
6690;DHT22;76797;51.590;8.116;2024-03-25T05:37:46;9.30;99.90
6690;DHT22;76797;51.590;8.116;2024-03-25T05:40:12;9.30;99.90
6690;DHT22;76797;51.590;8.116;2024-03-25T05:42:38;9.30;99.90
6690;DHT22;76797;51.590;8.116;2024-03-25T05:45:04;9.60;99.90
6690;DHT22;76797;51.590;8.116;2024-03-25T05:47:29;9.30;99.90
6690;DHT22;76797;51.590;8.116;2024-03-25T05:49:55;9.30;99.90
6690;DHT22;76797;51.590;8.116;2024-03-25T05:52:21;9.40;99.90
6690;DHT22;76797;51.590;8.116;2024-03-25T05:54:46;9.40;99.90
6690;DHT22;76797;51.590;8.116;2024-03-25T05:57:12;9.40;99.90
6690;DHT22;76797;51.590;8.116;2024-03-25T05:59:37;9.40;99.90
6690;DHT22;76797;51.590;8.116;2024-03-25T06:02:03;9.40;99.90
6690;DHT22;76797;51.590;8.116;2024-03-25T06:04:28;9.40;99.90
6690;DHT22;76797;51.590;8.116;2024-03-25T06:06:54;9.50;99.90
6690;DHT22;76797;51.590;8.116;2024-03-25T06:09:19;9.50;99.90
6690;DHT22;76797;51.590;8.116;2024-03-25T06:11:45;9.50;99.90
6690;DHT22;76797;51.590;8.116;2024-03-25T06:14:10;9.70;99.90
6690;DHT22;76797;51.590;8.116;2024-03-25T06:16:36;9.50;99.90
6690;DHT22;76797;51.590;8.116;2024-03-25T06:19:01;9.50;99.90
6690;DHT22;76797;51.590;8.116;2024-03-25T06:21:27;9.50;99.90
6690;DHT22;76797;51.590;8.116;2024-03-25T06:23:54;9.50;99.90
6690;DHT22;76797;51.590;8.116;2024-03-25T06:26:19;9.90;99.90
6690;DHT22;76797;51.590;8.116;2024-03-25T06:28:45;9.90;99.90
6690;DHT22;76797;51.590;8.116;2024-03-25T06:31:11;9.90;99.90
6690;DHT22;76797;51.590;8.116;2024-03-25T06:33:55;9.60;99.90
6690;DHT22;76797;51.590;8.116;2024-03-25T06:36:39;9.60;99.90
6690;DHT22;76797;51.590;8.116;2024-03-25T06:39:04;9.60;99.90
6690;DHT22;76797;51.590;8.116;2024-03-25T06:41:30;9.60;99.90
6690;DHT22;76797;51.590;8.116;2024-03-25T06:43:55;9.60;99.90
6690;DHT22;76797;51.590;8.116;2024-03-25T06:46:21;9.70;99.90
6690;DHT22;76797;51.590;8.116;2024-03-25T06:48:46;9.70;99.90
6690;DHT22;76797;51.590;8.116;2024-03-25T06:51:12;9.70;99.90
6690;DHT22;76797;51.590;8.116;2024-03-25T06:53:37;9.70;99.90
6690;DHT22;76797;51.590;8.116;2024-03-25T06:56:03;9.80;99.90
6690;DHT22;76797;51.590;8.116;2024-03-25T06:58:28;9.80;99.90
6690;DHT22;76797;51.590;8.116;2024-03-25T07:00:55;9.80;99.90
6690;DHT22;76797;51.590;8.116;2024-03-25T07:03:22;9.80;99.90
6690;DHT22;76797;51.590;8.116;2024-03-25T07:05:49;9.90;99.90
6690;DHT22;76797;51.590;8.116;2024-03-25T07:08:15;9.90;99.90
6690;DHT22;76797;51.590;8.116;2024-03-25T07:10:41;9.90;99.90
6690;DHT22;76797;51.590;8.116;2024-03-25T07:13:07;10.00;99.90
6690;DHT22;76797;51.590;8.116;2024-03-25T07:15:33;10.00;99.90
6690;DHT22;76797;51.590;8.116;2024-03-25T07:17:59;10.10;99.90
6690;DHT22;76797;51.590;8.116;2024-03-25T07:20:25;10.10;99.90
6690;DHT22;76797;51.590;8.116;2024-03-25T07:22:52;10.20;99.90
6690;DHT22;76797;51.590;8.116;2024-03-25T07:25:21;10.20;99.90
6690;DHT22;76797;51.590;8.116;2024-03-25T07:27:46;10.20;99.90
6690;DHT22;76797;51.590;8.116;2024-03-25T07:30:12;10.30;99.90
6690;DHT22;76797;51.590;8.116;2024-03-25T07:32:37;10.30;99.90
6690;DHT22;76797;51.590;8.116;2024-03-25T07:35:04;10.40;99.90
6690;DHT22;76797;51.590;8.116;2024-03-25T07:37:30;10.40;99.90
6690;DHT22;76797;51.590;8.116;2024-03-25T07:39:56;10.40;99.90
6690;DHT22;76797;51.590;8.116;2024-03-25T07:42:21;10.50;99.90
6690;DHT22;76797;51.590;8.116;2024-03-25T07:44:47;10.90;99.90
6690;DHT22;76797;51.590;8.116;2024-03-25T07:47:12;10.70;99.90
6690;DHT22;76797;51.590;8.116;2024-03-25T07:49:38;10.50;99.90
6690;DHT22;76797;51.590;8.116;2024-03-25T07:52:05;10.70;99.90
6690;DHT22;76797;51.590;8.116;2024-03-25T07:54:31;10.60;99.90
6690;DHT22;76797;51.590;8.116;2024-03-25T07:56:56;10.70;99.90
6690;DHT22;76797;51.590;8.116;2024-03-25T07:59:22;11.30;99.90
6690;DHT22;76797;51.590;8.116;2024-03-25T08:01:47;10.70;99.90
6690;DHT22;76797;51.590;8.116;2024-03-25T08:04:13;10.70;99.90
6690;DHT22;76797;51.590;8.116;2024-03-25T08:06:38;10.70;99.90
6690;DHT22;76797;51.590;8.116;2024-03-25T08:09:04;10.80;99.90
6690;DHT22;76797;51.590;8.116;2024-03-25T08:11:34;10.90;99.90
6690;DHT22;76797;51.590;8.116;2024-03-25T08:14:00;11.00;99.90
6690;DHT22;76797;51.590;8.116;2024-03-25T08:16:25;11.00;99.90
6690;DHT22;76797;51.590;8.116;2024-03-25T08:18:51;11.10;99.90
6690;DHT22;76797;51.590;8.116;2024-03-25T08:21:17;11.10;99.90
6690;DHT22;76797;51.590;8.116;2024-03-25T08:23:45;11.20;99.90
6690;DHT22;76797;51.590;8.116;2024-03-25T08:26:11;11.30;99.90
6690;DHT22;76797;51.590;8.116;2024-03-25T08:28:37;11.30;99.90
6690;DHT22;76797;51.590;8.116;2024-03-25T08:31:03;11.30;99.90
6690;DHT22;76797;51.590;8.116;2024-03-25T08:33:28;11.40;99.90
6690;DHT22;76797;51.590;8.116;2024-03-25T08:35:55;11.60;99.90
6690;DHT22;76797;51.590;8.116;2024-03-25T08:38:20;11.50;99.90
6690;DHT22;76797;51.590;8.116;2024-03-25T08:40:46;11.60;99.90
6690;DHT22;76797;51.590;8.116;2024-03-25T08:43:12;11.70;99.90
6690;DHT22;76797;51.590;8.116;2024-03-25T08:45:37;11.80;99.90
6690;DHT22;76797;51.590;8.116;2024-03-25T08:48:03;11.80;99.90
6690;DHT22;76797;51.590;8.116;2024-03-25T08:50:28;11.90;99.90
6690;DHT22;76797;51.590;8.116;2024-03-25T08:52:54;12.00;99.90
6690;DHT22;76797;51.590;8.116;2024-03-25T08:55:19;12.00;99.90
6690;DHT22;76797;51.590;8.116;2024-03-25T08:57:45;12.10;99.90
6690;DHT22;76797;51.590;8.116;2024-03-25T09:00:11;12.20;99.90
6690;DHT22;76797;51.590;8.116;2024-03-25T09:02:37;12.20;99.90
6690;DHT22;76797;51.590;8.116;2024-03-25T09:05:03;12.40;99.90
6690;DHT22;76797;51.590;8.116;2024-03-25T09:07:31;12.40;99.90
6690;DHT22;76797;51.590;8.116;2024-03-25T09:09:56;12.50;99.90
6690;DHT22;76797;51.590;8.116;2024-03-25T09:12:41;12.50;99.90
6690;DHT22;76797;51.590;8.116;2024-03-25T09:15:06;12.60;99.90
6690;DHT22;76797;51.590;8.116;2024-03-25T09:17:32;12.70;99.90
6690;DHT22;76797;51.590;8.116;2024-03-25T09:19:57;12.70;99.90
6690;DHT22;76797;51.590;8.116;2024-03-25T09:22:23;12.80;99.90
6690;DHT22;76797;51.590;8.116;2024-03-25T09:24:48;12.80;99.90
6690;DHT22;76797;51.590;8.116;2024-03-25T09:27:15;12.90;99.90
6690;DHT22;76797;51.590;8.116;2024-03-25T09:29:41;13.00;99.90
6690;DHT22;76797;51.590;8.116;2024-03-25T09:32:07;13.00;99.90
6690;DHT22;76797;51.590;8.116;2024-03-25T09:34:33;13.00;99.90
6690;DHT22;76797;51.590;8.116;2024-03-25T09:36:58;13.00;99.90
6690;DHT22;76797;51.590;8.116;2024-03-25T09:39:24;13.00;99.90
6690;DHT22;76797;51.590;8.116;2024-03-25T09:41:51;13.00;99.90
6690;DHT22;76797;51.590;8.116;2024-03-25T09:44:22;13.00;99.90
6690;DHT22;76797;51.590;8.116;2024-03-25T09:46:50;13.00;99.90
6690;DHT22;76797;51.590;8.116;2024-03-25T09:49:16;13.30;99.90
6690;DHT22;76797;51.590;8.116;2024-03-25T09:51:42;13.20;99.90
6690;DHT22;76797;51.590;8.116;2024-03-25T09:54:08;13.30;99.90
6690;DHT22;76797;51.590;8.116;2024-03-25T09:56:33;13.30;99.90
6690;DHT22;76797;51.590;8.116;2024-03-25T09:58:59;13.30;99.90
6690;DHT22;76797;51.590;8.116;2024-03-25T10:01:25;13.30;99.90
6690;DHT22;76797;51.590;8.116;2024-03-25T10:03:51;13.40;99.90
6690;DHT22;76797;51.590;8.116;2024-03-25T10:06:16;13.40;99.90
6690;DHT22;76797;51.590;8.116;2024-03-25T10:08:42;13.30;99.90
6690;DHT22;76797;51.590;8.116;2024-03-25T10:11:07;13.40;99.90
6690;DHT22;76797;51.590;8.116;2024-03-25T10:13:33;13.30;99.90
6690;DHT22;76797;51.590;8.116;2024-03-25T10:15:58;13.30;99.90
6690;DHT22;76797;51.590;8.116;2024-03-25T10:18:24;13.40;99.90
6690;DHT22;76797;51.590;8.116;2024-03-25T10:20:53;13.20;99.90
6690;DHT22;76797;51.590;8.116;2024-03-25T10:23:23;13.30;99.90
6690;DHT22;76797;51.590;8.116;2024-03-25T10:25:52;13.30;99.90
6690;DHT22;76797;51.590;8.116;2024-03-25T10:28:17;13.30;99.90
6690;DHT22;76797;51.590;8.116;2024-03-25T10:30:43;13.30;99.90
6690;DHT22;76797;51.590;8.116;2024-03-25T10:33:08;13.70;99.90
6690;DHT22;76797;51.590;8.116;2024-03-25T10:35:38;13.40;99.90
6690;DHT22;76797;51.590;8.116;2024-03-25T10:38:08;13.50;99.90
6690;DHT22;76797;51.590;8.116;2024-03-25T10:40:38;13.50;99.90
6690;DHT22;76797;51.590;8.116;2024-03-25T10:43:08;13.60;99.90
6690;DHT22;76797;51.590;8.116;2024-03-25T10:45:35;13.90;99.90
6690;DHT22;76797;51.590;8.116;2024-03-25T10:48:26;13.80;99.90
6690;DHT22;76797;51.590;8.116;2024-03-25T10:50:55;13.80;99.90
6690;DHT22;76797;51.590;8.116;2024-03-25T10:53:22;13.90;99.90
6690;DHT22;76797;51.590;8.116;2024-03-25T10:55:52;13.90;99.90
6690;DHT22;76797;51.590;8.116;2024-03-25T10:58:21;13.90;99.90
6690;DHT22;76797;51.590;8.116;2024-03-25T11:00:48;14.00;99.90
6690;DHT22;76797;51.590;8.116;2024-03-25T11:03:14;14.00;99.90
6690;DHT22;76797;51.590;8.116;2024-03-25T11:05:40;14.10;99.90
6690;DHT22;76797;51.590;8.116;2024-03-25T11:08:16;14.20;99.90
6690;DHT22;76797;51.590;8.116;2024-03-25T11:10:43;14.30;99.90
6690;DHT22;76797;51.590;8.116;2024-03-25T11:13:21;14.30;99.90
6690;DHT22;76797;51.590;8.116;2024-03-25T11:15:50;14.40;99.90
6690;DHT22;76797;51.590;8.116;2024-03-25T11:18:17;14.60;99.90
6690;DHT22;76797;51.590;8.116;2024-03-25T11:20:44;14.60;99.90
6690;DHT22;76797;51.590;8.116;2024-03-25T11:23:12;14.60;99.90
6690;DHT22;76797;51.590;8.116;2024-03-25T11:25:38;14.70;99.90
6690;DHT22;76797;51.590;8.116;2024-03-25T11:28:05;14.70;99.90
6690;DHT22;76797;51.590;8.116;2024-03-25T11:30:31;14.60;99.90
6690;DHT22;76797;51.590;8.116;2024-03-25T11:32:58;14.60;99.90
6690;DHT22;76797;51.590;8.116;2024-03-25T11:35:24;14.60;99.90
6690;DHT22;76797;51.590;8.116;2024-03-25T11:37:50;14.70;99.90
6690;DHT22;76797;51.590;8.116;2024-03-25T11:40:17;14.70;99.90
6690;DHT22;76797;51.590;8.116;2024-03-25T11:42:43;14.70;99.90
6690;DHT22;76797;51.590;8.116;2024-03-25T11:45:17;14.80;99.90
6690;DHT22;76797;51.590;8.116;2024-03-25T11:47:44;14.80;99.90
6690;DHT22;76797;51.590;8.116;2024-03-25T11:50:12;14.80;99.90
6690;DHT22;76797;51.590;8.116;2024-03-25T11:52:38;14.90;99.90
6690;DHT22;76797;51.590;8.116;2024-03-25T11:55:04;14.90;99.90
6690;DHT22;76797;51.590;8.116;2024-03-25T11:57:30;14.90;99.90
6690;DHT22;76797;51.590;8.116;2024-03-25T11:59:57;15.00;99.90
6690;DHT22;76797;51.590;8.116;2024-03-25T12:02:23;15.10;99.90
6690;DHT22;76797;51.590;8.116;2024-03-25T12:04:49;15.00;99.90
6690;DHT22;76797;51.590;8.116;2024-03-25T12:07:15;15.10;99.90
6690;DHT22;76797;51.590;8.116;2024-03-25T12:09:41;15.10;99.90
6690;DHT22;76797;51.590;8.116;2024-03-25T12:12:25;15.10;99.90
6690;DHT22;76797;51.590;8.116;2024-03-25T12:14:51;15.10;99.90
6690;DHT22;76797;51.590;8.116;2024-03-25T12:17:18;15.10;99.90
6690;DHT22;76797;51.590;8.116;2024-03-25T12:19:44;15.30;99.90
6690;DHT22;76797;51.590;8.116;2024-03-25T12:22:10;15.10;99.90
6690;DHT22;76797;51.590;8.116;2024-03-25T12:24:36;14.90;99.90
6690;DHT22;76797;51.590;8.116;2024-03-25T12:27:02;14.80;99.90
6690;DHT22;76797;51.590;8.116;2024-03-25T12:29:28;14.70;99.90
6690;DHT22;76797;51.590;8.116;2024-03-25T12:31:57;14.60;99.90
6690;DHT22;76797;51.590;8.116;2024-03-25T12:34:25;14.50;99.90
6690;DHT22;76797;51.590;8.116;2024-03-25T12:36:50;14.50;99.90
6690;DHT22;76797;51.590;8.116;2024-03-25T12:39:19;14.40;99.90
6690;DHT22;76797;51.590;8.116;2024-03-25T12:41:45;14.40;99.90
6690;DHT22;76797;51.590;8.116;2024-03-25T12:44:14;14.50;99.90
6690;DHT22;76797;51.590;8.116;2024-03-25T12:46:39;14.40;99.90
6690;DHT22;76797;51.590;8.116;2024-03-25T12:49:05;14.40;99.90
6690;DHT22;76797;51.590;8.116;2024-03-25T12:51:31;14.40;99.90
6690;DHT22;76797;51.590;8.116;2024-03-25T12:53:57;14.50;99.90
6690;DHT22;76797;51.590;8.116;2024-03-25T12:56:24;14.50;99.90
6690;DHT22;76797;51.590;8.116;2024-03-25T12:58:50;14.50;99.90
6690;DHT22;76797;51.590;8.116;2024-03-25T13:01:16;14.50;99.90
6690;DHT22;76797;51.590;8.116;2024-03-25T13:03:41;14.50;99.90
6690;DHT22;76797;51.590;8.116;2024-03-25T13:06:07;14.60;99.90
6690;DHT22;76797;51.590;8.116;2024-03-25T13:08:33;14.70;99.90
6690;DHT22;76797;51.590;8.116;2024-03-25T13:10:59;14.60;99.90
6690;DHT22;76797;51.590;8.116;2024-03-25T13:13:25;14.70;99.90
6690;DHT22;76797;51.590;8.116;2024-03-25T13:15:51;14.70;99.90
6690;DHT22;76797;51.590;8.116;2024-03-25T13:18:16;14.70;99.90
6690;DHT22;76797;51.590;8.116;2024-03-25T13:20:43;14.70;99.90
6690;DHT22;76797;51.590;8.116;2024-03-25T13:23:09;14.80;99.90
6690;DHT22;76797;51.590;8.116;2024-03-25T13:25:34;14.80;99.90
6690;DHT22;76797;51.590;8.116;2024-03-25T13:28:00;14.80;99.90
6690;DHT22;76797;51.590;8.116;2024-03-25T13:30:25;14.80;99.90
6690;DHT22;76797;51.590;8.116;2024-03-25T13:32:52;14.80;99.90
6690;DHT22;76797;51.590;8.116;2024-03-25T13:35:18;14.90;99.90
6690;DHT22;76797;51.590;8.116;2024-03-25T13:37:43;14.80;99.90
6690;DHT22;76797;51.590;8.116;2024-03-25T13:40:09;15.10;99.90
6690;DHT22;76797;51.590;8.116;2024-03-25T13:42:36;14.80;99.90
6690;DHT22;76797;51.590;8.116;2024-03-25T13:45:03;14.70;99.90
6690;DHT22;76797;51.590;8.116;2024-03-25T13:47:29;14.80;99.90
6690;DHT22;76797;51.590;8.116;2024-03-25T13:50:05;14.70;99.90
6690;DHT22;76797;51.590;8.116;2024-03-25T13:52:33;14.70;99.90
6690;DHT22;76797;51.590;8.116;2024-03-25T13:54:59;14.70;99.90
6690;DHT22;76797;51.590;8.116;2024-03-25T13:57:24;14.80;99.90
6690;DHT22;76797;51.590;8.116;2024-03-25T13:59:53;14.80;99.90
6690;DHT22;76797;51.590;8.116;2024-03-25T14:02:19;14.80;99.90
6690;DHT22;76797;51.590;8.116;2024-03-25T14:04:44;14.80;99.90
6690;DHT22;76797;51.590;8.116;2024-03-25T14:07:11;14.80;99.90
6690;DHT22;76797;51.590;8.116;2024-03-25T14:09:36;14.80;99.90
6690;DHT22;76797;51.590;8.116;2024-03-25T14:12:02;14.80;99.90
6690;DHT22;76797;51.590;8.116;2024-03-25T14:14:29;14.70;99.90
6690;DHT22;76797;51.590;8.116;2024-03-25T14:16:54;14.70;99.90
6690;DHT22;76797;51.590;8.116;2024-03-25T14:19:20;14.60;99.90
6690;DHT22;76797;51.590;8.116;2024-03-25T14:21:48;14.70;99.90
6690;DHT22;76797;51.590;8.116;2024-03-25T14:24:14;14.60;99.90
6690;DHT22;76797;51.590;8.116;2024-03-25T14:26:39;14.70;99.90
6690;DHT22;76797;51.590;8.116;2024-03-25T14:29:05;14.80;99.90
6690;DHT22;76797;51.590;8.116;2024-03-25T14:31:30;14.60;99.90
6690;DHT22;76797;51.590;8.116;2024-03-25T14:33:56;14.60;99.90
6690;DHT22;76797;51.590;8.116;2024-03-25T14:36:21;14.60;99.90
6690;DHT22;76797;51.590;8.116;2024-03-25T14:38:48;14.60;99.90
6690;DHT22;76797;51.590;8.116;2024-03-25T14:41:18;14.70;99.90
6690;DHT22;76797;51.590;8.116;2024-03-25T14:43:44;14.60;99.90
6690;DHT22;76797;51.590;8.116;2024-03-25T14:46:10;14.60;99.90
6690;DHT22;76797;51.590;8.116;2024-03-25T14:48:35;14.50;99.90
6690;DHT22;76797;51.590;8.116;2024-03-25T14:51:01;14.40;99.90
6690;DHT22;76797;51.590;8.116;2024-03-25T14:53:26;14.50;99.90
6690;DHT22;76797;51.590;8.116;2024-03-25T14:55:52;14.30;99.90
6690;DHT22;76797;51.590;8.116;2024-03-25T14:58:17;14.60;99.90
6690;DHT22;76797;51.590;8.116;2024-03-25T15:00:43;14.20;99.90
6690;DHT22;76797;51.590;8.116;2024-03-25T15:03:08;14.50;99.90
6690;DHT22;76797;51.590;8.116;2024-03-25T15:05:35;14.20;99.90
6690;DHT22;76797;51.590;8.116;2024-03-25T15:08:00;14.10;99.90
6690;DHT22;76797;51.590;8.116;2024-03-25T15:10:26;14.10;99.90
6690;DHT22;76797;51.590;8.116;2024-03-25T15:12:53;14.10;99.90
6690;DHT22;76797;51.590;8.116;2024-03-25T15:15:18;14.00;99.90
6690;DHT22;76797;51.590;8.116;2024-03-25T15:17:44;14.00;99.90
6690;DHT22;76797;51.590;8.116;2024-03-25T15:20:10;14.00;99.90
6690;DHT22;76797;51.590;8.116;2024-03-25T15:22:35;14.00;99.90
6690;DHT22;76797;51.590;8.116;2024-03-25T15:25:03;13.90;99.90
6690;DHT22;76797;51.590;8.116;2024-03-25T15:27:29;13.90;99.90
6690;DHT22;76797;51.590;8.116;2024-03-25T15:29:55;13.90;99.90
6690;DHT22;76797;51.590;8.116;2024-03-25T15:32:20;14.20;99.90
6690;DHT22;76797;51.590;8.116;2024-03-25T15:34:46;13.80;99.90
6690;DHT22;76797;51.590;8.116;2024-03-25T15:37:11;13.70;99.90
6690;DHT22;76797;51.590;8.116;2024-03-25T15:39:37;13.70;99.90
6690;DHT22;76797;51.590;8.116;2024-03-25T15:42:04;14.00;99.90
6690;DHT22;76797;51.590;8.116;2024-03-25T15:44:29;13.70;99.90
6690;DHT22;76797;51.590;8.116;2024-03-25T15:46:55;13.70;99.90